Aviation Digital Data Service (ADDS)

Output produced by METARs form (1442 UTC 20 September 2017)
found at http://www.aviationweather.gov/adds/metars/
 
KABQ 201120Z 2012/2112 20006KT P6SM BKN250 
     FM201900 23010KT P6SM SKC 
     FM210200 16007KT P6SM SKC
       
KABY 201120Z 2012/2112 00000KT 5SM BR SCT250 
     FM201300 VRB03KT 6SM BR SCT250 
     FM201400 27005KT P6SM SCT040 
     FM210000 VRB03KT P6SM BKN250
       
KACT 201120Z 2012/2112 18015KT P6SM SCT009 BKN013 
     FM201500 18015KT P6SM BKN025 
     FM201600 17014KT P6SM SCT040 
     FM211000 17010KT P6SM BKN010
       
KACV 201434Z 2015/2112 23009KT 5SM -SHRA BR BKN007 BKN012 OVC035 
     TEMPO 2015/2016 SCT007 BKN012 OVC030 
     FM201600 25009KT 6SM -RA BR SCT012 BKN030 OVC050 
     TEMPO 2016/2018 BKN035 OVC050 
     FM201800 28008KT 6SM -SHRA VCTS SCT008 BKN020CB 
     FM210000 30006KT P6SM SCT008 BKN020 
     FM210800 33003KT 2SM BR SCT005 BKN015
       
TAF KADW 200900Z 2009/2115 35009KT 9999 FEW030 SCT100 QNH2987INS 
     BECMG 2014/2015 33012KT 9999 FEW100 SCT250 QNH2990INS 
     BECMG 2023/2024 35009KT 9999 FEW035 SCT250 QNH2993INS 
     BECMG 2103/2104 33009KT 9999 SCT030 SCT060 QNH2996INS TX30/2021Z TN18/2011Z
       
KAEG 201120Z 2012/2112 24006KT P6SM SCT250 
     FM201900 24011KT P6SM SKC 
     FM210200 23008KT P6SM SKC 
     FM210900 VRB04KT P6SM SKC
       
KAEX 201220Z 2012/2112 VRB04KT 2SM BR BKN005 
     TEMPO 2012/2014 1/4SM FG BKN003 
     FM201500 VRB05KT P6SM SCT020 BKN120 
     FM201800 18005KT P6SM VCSH SCT035 BKN250 
     FM210000 VRB04KT P6SM SCT250
       
TAF KAFF 201106Z 2011/2117 17009KT 9999 SKC 530309 QNH2996INS WS020/19025 
     BECMG 2015/2016 17012G18KT 9999 SKC 520003 530309 QNH2998INS 
     BECMG 2017/2018 17015G25KT 9999 SKC 520003 530309 QNH2999INS 
     BECMG 2101/2102 21009KT 9999 FEW100 QNH2996INS 
     TEMPO 2106/2109 25015G25KT 520005 
     BECMG 2115/2116 21012KT 9999 SKC QNH2995INS TX21/2023Z TN05/2012Z
       
KAFW 201120Z 2012/2112 17015KT P6SM FEW050 SCT250 
     TEMPO 2013/2015 BKN015
       
KAGC 201135Z 2012/2112 00000KT 6SM BR SKC 
     FM201300 00000KT P6SM FEW080 
     FM201800 29003KT P6SM SCT050
       
KAGS 201425Z 2014/2112 27005KT P6SM SCT060 
     FM210000 VRB03KT P6SM SCT100 
     FM210900 00000KT 2SM BR SKC
       
KAHN 201144Z 2012/2112 00000KT 6SM BR FEW250 
     FM201600 26003KT P6SM SCT050 
     FM202100 29004KT P6SM FEW250 
     FM210000 25003KT P6SM FEW250 
     FM210700 00000KT P6SM FEW250 
     FM210900 00000KT 4SM BR FEW250
       
KAIA 201120Z 2012/2112 30009KT P6SM BKN100 
     FM201600 28015G22KT P6SM FEW100 
     FM202000 22015G24KT P6SM SKC 
     FM210000 16015G22KT P6SM SCT100
       
KALB 201133Z 2012/2112 36004KT P6SM BKN250 
     FM201500 35010KT P6SM BKN250 
     FM210000 34005KT P6SM SCT050
       
KALS 201120Z 2012/2112 19010KT P6SM SKC 
     FM201700 21013KT P6SM SKC 
     FM201900 23018G30KT P6SM SKC 
     FM210200 23008KT P6SM SKC
       
KALW 201120Z 2012/2112 19008KT P6SM -RA BKN050 OVC060 
     FM201900 21010KT P6SM -SHRA SCT050 BKN060 
     FM210300 18007KT P6SM BKN060
       
KAMA 201120Z 2012/2112 36010KT P6SM SKC 
     FM201600 17007KT P6SM SKC
       
KANB 201414Z 2014/2112 VRB03KT P6SM SKC 
     FM201600 29005KT P6SM SCT050
       
KAND 201138Z 2012/2112 VRB03KT P6SM FEW090 
     FM201600 25005KT P6SM SCT045 
     PROB30 2022/2023 4SM -TSRA BKN045CB 
     FM210000 VRB03KT P6SM FEW050 
     FM210800 00000KT P6SM FEW250
       
KAOO 201130Z 2012/2112 00000KT 1/4SM FG VV001 
     FM201430 00000KT 3SM BR SCT005 
     FM201500 34005KT P6SM SKC 
     FM210000 00000KT P6SM SKC 
     FM210600 00000KT 1/4SM FG VV002
       
KAPA 201121Z 2012/2112 14010KT P6SM FEW100 
     FM201400 18008KT P6SM FEW220 
     FM201700 18014KT P6SM SCT220 
     FM202000 18015G25KT P6SM FEW110 SCT220 
     FM210200 18012KT P6SM FEW130 SCT220 
     FM210600 21008KT P6SM FEW220
       
KAPF 201120Z 2012/2112 07005KT P6SM FEW025 SCT250 
     FM201500 27010KT P6SM VCSH SCT035 BKN050 
     FM210000 VRB05KT P6SM FEW025 SCT120 BKN250
       
KAPN 201146Z 2012/2112 VRB03KT 1SM BR VV003 
     FM201400 13005KT 3SM BR OVC008 
     FM201600 13007KT P6SM BKN025 
     FM201800 14007KT P6SM BKN060 
     FM202000 14009KT P6SM SCT100 
     FM210800 17004KT P6SM BKN120
       
KARA 201120Z 2012/2112 VRB04KT P6SM SCT250 
     TEMPO 2012/2014 4SM BR SCT015 
     FM201500 19006KT P6SM SCT020 BKN250 
     FM201800 19007KT P6SM VCSH SCT035 BKN250 
     FM210000 VRB05KT P6SM SCT250
       
KASD 201120Z 2012/2112 00000KT P6SM SKC 
     FM201600 00000KT P6SM BKN025 BKN200 
     FM202100 00000KT P6SM FEW045 SCT140 
     PROB30 2021/2023 4SM -TSRA BKN040CB BKN045 
     FM211100 32004KT 4SM BR BKN015 BKN140
       
KASE 201125Z 2012/2112 VRB04KT P6SM SCT100 
     FM201900 22012G22KT P6SM FEW100 FEW200 
     FM210200 19006KT P6SM FEW100 FEW250 
     FM210700 16007KT P6SM SKC
       
KASN 201416Z 2014/2112 VRB03KT P6SM SKC 
     FM201600 29005KT P6SM SCT050
       
KAST 201342Z 2014/2112 13006KT P6SM -SHRA BKN035 OVC050 
     FM201900 28008KT P6SM OVC025 
     FM210100 25005KT P6SM OVC015
       
KATW 201131Z 2012/2112 14006G15KT P6SM SCT006 BKN200 
     TEMPO 2012/2015 4SM BR BKN005 
     FM201600 16012G18KT P6SM SCT012 BKN100 
     FM202100 18012G18KT 6SM -SHRA VCTS OVC040CB 
     FM210300 19004KT P6SM VCTS BKN040CB 
     FM210600 VRB03KT P6SM BKN030 
     FM210800 34005KT 5SM BR SCT020 
     FM211000 01006KT 3SM BR BKN012
       
KATL 201404Z 2014/2118 32006KT P6SM FEW250 
     FM201700 29004KT P6SM FEW050 FEW250 
     FM210100 29004KT P6SM FEW250 
     FM210800 31003KT P6SM FEW250 
     FM211300 01004KT P6SM FEW250
       
KATY 201125Z 2012/2112 26010KT P6SM SCT090 
     FM202200 21009KT P6SM SKC 
     FM210300 VRB06KT P6SM SKC
       
KAUG 201342Z 2014/2112 01009KT P6SM OVC003 
     FM201800 02011G18KT P6SM OVC025 
     FM210000 01010KT P6SM BKN035
       
KAUS 201120Z 2012/2118 17006KT P6SM SCT015 BKN021 
     TEMPO 2012/2015 BKN015 
     FM201500 19012KT P6SM BKN025 
     FM201600 18012KT P6SM SCT040 
     FM210800 18006KT P6SM BKN012 
     FM211600 18009KT P6SM SCT040
       
KAUW 201415Z 2014/2112 13008KT 5SM BR BKN013 
     FM201600 15011G17KT P6SM BKN025 
     FM201800 17010G16KT P6SM SCT015 BKN070 
     FM201900 18009KT P6SM VCTS BKN015CB 
     FM210300 32004KT P6SM BKN045 
     FM210600 34004KT 5SM BR SCT012 SCT040 
     FM210900 04004KT 2SM BR BKN010
       
KAVL 201156Z 2012/2112 36003KT 3SM BR FEW120 
     TEMPO 2012/2013 3/4SM BR VV002 
     FM201300 35004KT P6SM FEW080 
     FM201800 34006KT P6SM VCTS SCT040CB 
     FM202100 33005KT P6SM SCT070 
     FM210000 33004KT P6SM FEW080 FEW250 
     FM210800 VRB02KT 5SM BR FEW250
       
KAVP 201139Z 2012/2112 02004KT P6SM SCT200 
     FM201600 35008KT P6SM SCT100 
     FM210100 36004KT P6SM SKC
       
KAXN 201140Z 2012/2112 28013G20KT P6SM SCT150 
     TEMPO 2012/2013 BKN020 
     FM201500 28012KT P6SM SKC 
     FM210000 18004KT P6SM SKC 
     FM210600 15009KT P6SM SKC
       
KAZO 201333Z 2014/2112 17003KT 6SM HZ OVC007 
     FM201430 19005KT P6SM SCT035 
     FM210500 17004KT 4SM BR BKN250